首页
METAR-TAF:

METAR-TAF

机场 :

Caldwell, 新泽西州, 美国

纬度: 40-52-35N, 经度: 074-16-59W, 海拔: 52米

当前天气观测

该预报发布于25分钟前的13:23 UTC
静风
温度 2°C
湿度 80%
气压 1016 hPa
能見度: 6.4公里
阴天层高于800英尺
轻雾

METAR: KCDW 151323Z 00000KT 4SM BR OVC008 02/M01 A2999 RMK AO2 CIG 007V010 T00171006

时间: 08:48 (13:48 UTC)


TAF: 丢失

超过4000个机场的气象观测和天气预报(METAR&TAF报告)。

可查询的气象台以黄色和红色小点在地图上表示。

将鼠标移到小点上方,可查看气象台名称。

然后点击查看天气观测和预报。

如需切换地图:点击带黑十字的绿色按钮放大地图;点击带横线的绿色按钮缩小地图;或者点击绿色箭头查看邻近地区的地图。


METAR-TAF: